Time;durP1;ratioP1;P1;durP2;ratioP2;P2;SDS_P1;SDS_P2;PMS_P1;PMS_P2;Temp;Humidity;BMP_temperature;BMP_pressure;BME280_temperature;BME280_humidity;BME280_pressure;Samples;Min_cycle;Max_cycle;Signal;HPM_P1;HPM_P2
2021/05/15 00:00:58;;;;;;;8.53;8.23;;;24.20;65.70;;;;;;3556428;40;20470;-53
2021/05/15 00:03:25;;;;;;;9.33;8.83;;;24.20;65.70;;;;;;3556917;40;20485;-55
2021/05/15 00:05:54;;;;;;;8.87;8.47;;;24.20;65.60;;;;;;3556784;40;20486;-57
2021/05/15 00:08:20;;;;;;;9.07;8.50;;;24.20;65.70;;;;;;3556750;40;20595;-55
2021/05/15 00:10:48;;;;;;;8.87;8.43;;;24.20;65.70;;;;;;3555800;40;20480;-55
2021/05/15 00:13:16;;;;;;;8.70;8.40;;;24.20;65.80;;;;;;3545725;40;20471;-57
2021/05/15 00:15:44;;;;;;;9.10;8.60;;;24.20;65.80;;;;;;3547539;40;20492;-56
2021/05/15 00:18:12;;;;;;;9.20;8.80;;;24.20;65.80;;;;;;3547165;40;20542;-56
2021/05/15 00:20:40;;;;;;;9.30;9.00;;;24.20;65.80;;;;;;3547095;40;20500;-57
2021/05/15 00:23:07;;;;;;;10.00;9.30;;;24.20;65.80;;;;;;3547380;40;20232;-55
2021/05/15 00:25:35;;;;;;;9.37;9.07;;;24.20;65.80;;;;;;3547201;40;20851;-56
2021/05/15 00:28:03;;;;;;;9.15;8.80;;;24.20;65.80;;;;;;3546663;40;20524;-54
2021/05/15 00:30:30;;;;;;;9.20;8.90;;;24.20;65.70;;;;;;3545931;40;20272;-55
2021/05/15 00:32:57;;;;;;;9.47;9.07;;;24.20;65.80;;;;;;3547686;40;20489;-55
2021/05/15 00:35:25;;;;;;;9.10;8.70;;;24.10;65.60;;;;;;3547473;40;20997;-55
2021/05/15 00:37:53;;;;;;;8.68;8.38;;;24.20;65.70;;;;;;3546981;40;20477;-57
2021/05/15 00:40:21;;;;;;;8.70;8.40;;;24.10;65.60;;;;;;3547553;40;20270;-56
2021/05/15 00:42:47;;;;;;;8.40;8.10;;;24.10;65.50;;;;;;3547514;40;20745;-57
2021/05/15 00:45:16;;;;;;;9.27;8.90;;;24.10;65.40;;;;;;3546707;40;20491;-54
2021/05/15 00:47:44;;;;;;;8.43;8.13;;;24.10;65.40;;;;;;3546299;40;20490;-57
2021/05/15 00:50:12;;;;;;;9.10;8.70;;;24.10;65.30;;;;;;3547244;40;20488;-54
2021/05/15 00:52:41;;;;;;;8.93;8.60;;;24.10;65.30;;;;;;3546652;40;20940;-53
2021/05/15 00:55:10;;;;;;;9.67;8.97;;;24.10;65.40;;;;;;3546199;40;20538;-54
2021/05/15 00:57:39;;;;;;;8.77;8.47;;;24.10;65.40;;;;;;3545799;40;20961;-56
2021/05/15 01:00:09;;;;;;;8.70;8.40;;;24.10;65.30;;;;;;3546004;40;20516;-55
2021/05/15 01:02:37;;;;;;;9.20;8.73;;;24.10;65.40;;;;;;3546123;40;20495;-56
2021/05/15 01:05:06;;;;;;;8.70;8.50;;;24.10;65.50;;;;;;3546579;40;20486;-55
2021/05/15 01:07:34;;;;;;;8.80;8.50;;;24.00;65.30;;;;;;3546127;40;20706;-56
2021/05/15 01:10:04;;;;;;;8.90;8.60;;;24.00;65.10;;;;;;3546231;40;20513;-54
2021/05/15 01:12:32;;;;;;;8.10;7.90;;;24.00;65.10;;;;;;3560204;40;20515;-53
2021/05/15 01:14:59;;;;;;;8.70;8.30;;;24.00;65.10;;;;;;3566556;40;20478;-57
2021/05/15 01:17:27;;;;;;;8.60;8.30;;;24.00;65.20;;;;;;3567341;40;20496;-56
2021/05/15 01:19:54;;;;;;;8.50;8.20;;;24.00;65.20;;;;;;3557920;40;20489;-53
2021/05/15 01:22:26;;;;;;;8.57;8.27;;;24.00;65.20;;;;;;3557819;40;20838;-55
2021/05/15 01:24:53;;;;;;;8.40;8.10;;;24.00;65.10;;;;;;3566556;40;20495;-56
2021/05/15 01:27:21;;;;;;;9.05;8.68;;;24.00;65.00;;;;;;3566815;40;20897;-57
2021/05/15 01:29:50;;;;;;;9.07;8.73;;;24.00;65.00;;;;;;3565248;40;20232;-55
2021/05/15 01:32:17;;;;;;;8.90;8.60;;;24.00;65.00;;;;;;3565841;40;20528;-55
2021/05/15 01:34:44;;;;;;;8.80;8.50;;;24.00;64.90;;;;;;3566998;40;20491;-57
2021/05/15 01:37:11;;;;;;;8.70;8.30;;;24.00;65.00;;;;;;3566841;40;20461;-55
2021/05/15 01:39:40;;;;;;;8.70;8.40;;;24.00;64.90;;;;;;3566883;40;20473;-57
2021/05/15 01:42:07;;;;;;;8.20;8.00;;;24.00;64.90;;;;;;3566702;40;20481;-57
2021/05/15 01:44:35;;;;;;;8.53;8.23;;;24.00;65.00;;;;;;3565724;40;20472;-56
2021/05/15 01:47:02;;;;;;;8.43;8.17;;;24.00;65.00;;;;;;3566106;40;20862;-57
2021/05/15 01:49:29;;;;;;;8.60;8.30;;;24.00;65.00;;;;;;3566286;40;20489;-57
2021/05/15 01:51:56;;;;;;;8.90;8.60;;;24.00;65.00;;;;;;3566812;40;20530;-56
2021/05/15 01:54:24;;;;;;;8.47;8.20;;;24.00;65.00;;;;;;3566780;40;20489;-56
2021/05/15 01:56:51;;;;;;;8.40;8.10;;;24.00;65.00;;;;;;3565415;40;20488;-56
2021/05/15 01:59:22;;;;;;;8.80;8.40;;;23.90;64.90;;;;;;3564002;40;20757;-54
2021/05/15 02:01:49;;;;;;;9.23;8.82;;;23.90;64.80;;;;;;3565966;40;20978;-57
2021/05/15 02:04:17;;;;;;;8.67;8.37;;;23.90;64.90;;;;;;3565618;40;20236;-53
2021/05/15 02:06:44;;;;;;;8.83;8.40;;;23.90;64.80;;;;;;3567982;40;20486;-56
2021/05/15 02:09:11;;;;;;;8.33;8.07;;;23.90;64.90;;;;;;3558540;40;20487;-54
2021/05/15 02:11:39;;;;;;;8.60;8.30;;;23.90;64.80;;;;;;3567863;40;20734;-55
2021/05/15 02:14:07;;;;;;;8.97;8.67;;;23.90;64.80;;;;;;3567622;40;20267;-54
2021/05/15 02:16:34;;;;;;;8.60;8.20;;;23.90;64.70;;;;;;3567543;40;20496;-56
2021/05/15 02:19:01;;;;;;;8.40;8.03;;;23.90;64.80;;;;;;3567907;40;20699;-53
2021/05/15 02:21:28;;;;;;;8.40;8.10;;;23.90;64.70;;;;;;3567111;40;20711;-56
2021/05/15 02:23:55;;;;;;;8.73;8.43;;;23.90;64.80;;;;;;3565669;40;20515;-54
2021/05/15 02:26:22;;;;;;;8.33;8.13;;;23.90;64.80;;;;;;3567488;40;20473;-56
2021/05/15 02:28:49;;;;;;;9.03;8.73;;;23.90;64.80;;;;;;3567714;40;20862;-56
2021/05/15 02:31:18;;;;;;;9.20;8.90;;;23.90;64.80;;;;;;3567790;40;20860;-55
2021/05/15 02:33:45;;;;;;;9.03;8.63;;;23.90;64.80;;;;;;3558384;40;20870;-57
2021/05/15 02:36:14;;;;;;;9.00;8.70;;;23.90;64.80;;;;;;3567015;40;20479;-57
2021/05/15 02:38:41;;;;;;;9.00;8.60;;;23.90;64.70;;;;;;3567625;40;20498;-56
2021/05/15 02:41:09;;;;;;;8.80;8.50;;;23.90;64.70;;;;;;3565809;40;20477;-57
2021/05/15 02:43:36;;;;;;;9.10;8.80;;;23.90;64.70;;;;;;3558028;40;20473;-53
2021/05/15 02:46:04;;;;;;;9.50;9.00;;;23.90;64.60;;;;;;3567525;40;20503;-56
2021/05/15 02:48:32;;;;;;;8.97;8.67;;;23.90;64.70;;;;;;3558636;40;20899;-55
2021/05/15 02:51:00;;;;;;;9.40;9.10;;;23.90;64.70;;;;;;3567754;40;20475;-54
2021/05/15 02:53:27;;;;;;;9.20;8.90;;;23.90;64.80;;;;;;3567870;40;20495;-58
2021/05/15 02:55:55;;;;;;;9.30;8.80;;;23.90;64.70;;;;;;3567141;40;20956;-56
2021/05/15 02:58:23;;;;;;;8.60;8.30;;;23.90;64.70;;;;;;3567335;40;20761;-55
2021/05/15 03:00:51;;;;;;;9.03;8.73;;;23.90;64.60;;;;;;3567873;40;20504;-54
2021/05/15 03:03:18;;;;;;;9.07;8.67;;;23.90;64.50;;;;;;3567022;40;20813;-57
2021/05/15 03:05:47;;;;;;;9.10;8.80;;;23.90;64.50;;;;;;3567318;40;20480;-57
2021/05/15 03:08:14;;;;;;;9.43;9.13;;;23.90;64.40;;;;;;3557720;40;20492;-55
2021/05/15 03:10:42;;;;;;;9.10;8.70;;;23.90;64.40;;;;;;3567436;40;20901;-58
2021/05/15 03:13:09;;;;;;;9.60;9.30;;;23.90;64.30;;;;;;3566926;40;20490;-55
2021/05/15 03:15:36;;;;;;;9.00;8.70;;;23.90;64.30;;;;;;3566641;40;20582;-58
2021/05/15 03:18:03;;;;;;;9.63;9.33;;;23.90;64.30;;;;;;3566876;40;20461;-58
2021/05/15 03:20:31;;;;;;;9.73;9.40;;;23.90;64.10;;;;;;3567990;40;20878;-57
2021/05/15 03:22:58;;;;;;;9.77;9.47;;;23.90;64.20;;;;;;3567022;40;20490;-57
2021/05/15 03:25:26;;;;;;;9.53;9.23;;;24.00;64.20;;;;;;3563371;40;20516;-56
2021/05/15 03:27:53;;;;;;;9.50;9.20;;;24.00;64.20;;;;;;3556823;40;20500;-55
2021/05/15 03:30:21;;;;;;;9.57;9.27;;;24.00;64.20;;;;;;3557270;40;20566;-53
2021/05/15 03:32:48;;;;;;;9.52;9.23;;;24.00;64.10;;;;;;3547857;40;20485;-58
2021/05/15 03:35:19;;;;;;;9.20;8.90;;;24.00;63.90;;;;;;3556341;40;20229;-57
2021/05/15 03:37:46;;;;;;;10.00;9.70;;;24.10;64.00;;;;;;3557365;40;20481;-56
2021/05/15 03:40:14;;;;;;;10.40;9.90;;;24.10;63.80;;;;;;3556853;40;20482;-57
2021/05/15 03:42:41;;;;;;;10.63;10.20;;;24.10;63.80;;;;;;3557388;40;20480;-56
2021/05/15 03:45:10;;;;;;;9.60;9.30;;;24.20;63.70;;;;;;3555837;40;20579;-57
2021/05/15 03:47:36;;;;;;;10.30;9.90;;;24.20;63.60;;;;;;3556529;40;20699;-56
2021/05/15 03:50:04;;;;;;;10.53;10.03;;;24.20;63.60;;;;;;3556071;40;20240;-56
2021/05/15 03:52:31;;;;;;;10.20;9.80;;;24.20;63.40;;;;;;3566843;40;20697;-57
2021/05/15 03:54:59;;;;;;;9.90;9.60;;;24.30;63.50;;;;;;3566449;40;20312;-57
2021/05/15 03:57:27;;;;;;;10.00;9.70;;;24.30;63.40;;;;;;3565220;40;20481;-57
2021/05/15 03:59:55;;;;;;;9.70;9.40;;;24.30;63.30;;;;;;3566329;40;21306;-57
2021/05/15 04:02:23;;;;;;;10.00;9.60;;;24.40;63.30;;;;;;3566135;40;20484;-54
2021/05/15 04:04:50;;;;;;;9.37;9.17;;;24.40;63.20;;;;;;3566018;40;20477;-57
2021/05/15 04:07:18;;;;;;;9.73;9.43;;;24.40;63.10;;;;;;3565412;40;20475;-57
2021/05/15 04:09:45;;;;;;;9.80;9.40;;;24.40;63.00;;;;;;3565827;40;20482;-56
2021/05/15 04:12:14;;;;;;;10.30;9.90;;;24.40;62.90;;;;;;3565696;40;20486;-54
2021/05/15 04:14:44;;;;;;;10.10;9.73;;;24.50;63.10;;;;;;3566800;40;20534;-56
2021/05/15 04:19:58;;;;;;;10.30;10.00;;;24.50;63.00;;;;;;3566590;40;20562;-56
2021/05/15 04:22:26;;;;;;;10.13;9.70;;;24.60;63.00;;;;;;3565824;40;20483;-56
2021/05/15 04:24:54;;;;;;;9.70;9.30;;;24.60;62.80;;;;;;3566662;40;20798;-55
2021/05/15 04:27:21;;;;;;;9.93;9.43;;;24.60;62.60;;;;;;3566189;40;20474;-56
2021/05/15 04:29:50;;;;;;;9.63;9.33;;;24.60;62.60;;;;;;3565928;40;20731;-56
2021/05/15 04:32:18;;;;;;;10.10;9.70;;;24.70;62.70;;;;;;3567243;40;20478;-52
2021/05/15 04:34:45;;;;;;;10.20;9.80;;;24.70;62.70;;;;;;3567095;40;20482;-57
2021/05/15 04:37:11;;;;;;;10.07;9.60;;;24.70;62.40;;;;;;3566484;40;20845;-55
2021/05/15 04:39:38;;;;;;;9.97;9.67;;;24.70;62.40;;;;;;3566282;40;20483;-54
2021/05/15 04:42:06;;;;;;;11.03;10.60;;;24.80;62.40;;;;;;3564639;40;20486;-56
2021/05/15 04:44:33;;;;;;;10.40;10.10;;;24.80;62.40;;;;;;3565992;40;20487;-55
2021/05/15 04:47:01;;;;;;;10.68;10.20;;;24.80;62.30;;;;;;3566694;40;20494;-55
2021/05/15 04:49:28;;;;;;;10.73;10.30;;;24.80;62.30;;;;;;3566899;40;20235;-55
2021/05/15 04:51:56;;;;;;;10.37;9.97;;;24.90;62.10;;;;;;3566133;40;20471;-56
2021/05/15 04:54:23;;;;;;;10.53;10.10;;;24.90;62.00;;;;;;3565525;40;20489;-55
2021/05/15 04:56:49;;;;;;;10.07;9.77;;;24.90;61.90;;;;;;3565648;40;20490;-56
2021/05/15 04:59:16;;;;;;;10.50;10.20;;;24.90;61.90;;;;;;3564636;40;20479;-55
2021/05/15 05:01:44;;;;;;;9.80;9.40;;;25.00;62.00;;;;;;3565711;40;20481;-58
2021/05/15 05:04:12;;;;;;;9.93;9.63;;;25.00;61.90;;;;;;3566933;40;20474;-57
2021/05/15 05:06:39;;;;;;;10.10;9.70;;;25.00;61.80;;;;;;3565761;40;20495;-58
2021/05/15 05:09:08;;;;;;;10.03;9.73;;;25.00;61.80;;;;;;3566706;40;20488;-57
2021/05/15 05:11:38;;;;;;;10.03;9.63;;;25.00;61.70;;;;;;3565773;40;20522;-57
2021/05/15 05:14:06;;;;;;;9.90;9.60;;;25.00;61.60;;;;;;3566433;40;20750;-56
2021/05/15 05:16:33;;;;;;;10.17;9.87;;;25.00;61.50;;;;;;3566360;40;20492;-57
2021/05/15 05:19:01;;;;;;;10.50;10.10;;;25.00;61.40;;;;;;3566351;40;20477;-55
2021/05/15 05:21:30;;;;;;;9.67;9.37;;;25.10;61.40;;;;;;3566133;40;20509;-57
2021/05/15 05:23:57;;;;;;;9.70;9.40;;;25.10;61.60;;;;;;3565735;40;20489;-56
2021/05/15 05:26:25;;;;;;;10.03;9.73;;;25.10;61.50;;;;;;3565929;40;20482;-57
2021/05/15 05:28:52;;;;;;;10.30;9.90;;;25.10;61.30;;;;;;3565487;40;20471;-56
2021/05/15 05:31:22;;;;;;;10.50;10.07;;;25.10;61.30;;;;;;3564892;40;20536;-57
2021/05/15 05:33:49;;;;;;;10.50;10.20;;;25.10;61.30;;;;;;3564788;40;21233;-57
2021/05/15 05:36:16;;;;;;;10.40;10.10;;;25.20;61.30;;;;;;3565287;40;20900;-56
2021/05/15 05:38:44;;;;;;;10.55;10.20;;;25.20;61.20;;;;;;3564835;40;20486;-57
2021/05/15 05:41:12;;;;;;;10.30;10.00;;;25.20;61.30;;;;;;3564031;40;20621;-57
2021/05/15 05:43:39;;;;;;;10.60;10.00;;;25.20;61.40;;;;;;3564360;40;20580;-58
2021/05/15 05:46:07;;;;;;;10.87;10.40;;;25.20;61.30;;;;;;3564696;40;20482;-57
2021/05/15 05:48:34;;;;;;;10.00;9.63;;;25.30;61.30;;;;;;3564603;40;20524;-58
2021/05/15 05:51:02;;;;;;;10.50;10.00;;;25.20;61.20;;;;;;3564036;40;20572;-57
2021/05/15 05:53:29;;;;;;;10.40;10.00;;;25.30;61.10;;;;;;3563638;40;20491;-58
2021/05/15 05:55:57;;;;;;;10.10;9.70;;;25.30;61.10;;;;;;3564733;40;20490;-57
2021/05/15 05:58:25;;;;;;;10.73;10.32;;;25.30;61.00;;;;;;3554196;40;20531;-57
2021/05/15 06:00:53;;;;;;;11.00;10.50;;;25.30;61.00;;;;;;3564775;40;20243;-54
2021/05/15 06:03:20;;;;;;;10.23;9.73;;;25.30;60.90;;;;;;3563560;40;20490;-58
2021/05/15 06:05:46;;;;;;;10.00;9.70;;;25.30;60.80;;;;;;3565436;40;20227;-55
2021/05/15 06:08:14;;;;;;;10.57;10.17;;;25.30;60.80;;;;;;3564884;40;20874;-57
2021/05/15 06:10:41;;;;;;;10.10;9.80;;;25.30;60.80;;;;;;3565573;40;20515;-57
2021/05/15 06:13:11;;;;;;;10.50;10.20;;;25.30;60.70;;;;;;3565136;40;20494;-57
2021/05/15 06:15:39;;;;;;;10.67;10.33;;;25.40;60.90;;;;;;3565695;40;20666;-57
2021/05/15 06:18:06;;;;;;;9.93;9.63;;;25.40;60.90;;;;;;3565501;40;20496;-57
2021/05/15 06:20:34;;;;;;;10.23;9.83;;;25.40;60.70;;;;;;3565223;40;20478;-58
2021/05/15 06:23:01;;;;;;;9.90;9.60;;;25.40;60.80;;;;;;3564176;40;20475;-55
2021/05/15 06:25:29;;;;;;;10.30;9.90;;;25.40;60.70;;;;;;3564112;40;20496;-58
2021/05/15 06:27:56;;;;;;;9.73;9.43;;;25.40;61.40;;;;;;3555014;40;20493;-58
2021/05/15 06:30:25;;;;;;;9.80;9.50;;;25.40;60.70;;;;;;3564925;40;20506;-58
2021/05/15 06:32:52;;;;;;;10.47;10.07;;;25.40;60.70;;;;;;3563331;40;20726;-57
2021/05/15 06:35:20;;;;;;;9.30;9.00;;;25.40;60.70;;;;;;3563410;40;20514;-57
2021/05/15 06:37:49;;;;;;;10.30;9.90;;;25.40;60.80;;;;;;3564799;40;20493;-57
2021/05/15 06:40:15;;;;;;;9.70;9.40;;;25.40;60.80;;;;;;3563961;40;20487;-54
2021/05/15 06:42:45;;;;;;;9.00;8.70;;;25.40;60.80;;;;;;3564629;40;20880;-58
2021/05/15 06:45:13;;;;;;;9.67;9.37;;;25.40;60.80;;;;;;3563014;40;20513;-57
2021/05/15 06:47:42;;;;;;;9.67;9.37;;;25.50;61.00;;;;;;3563413;40;20939;-57
2021/05/15 06:50:10;;;;;;;9.33;8.97;;;25.50;61.10;;;;;;3563371;40;20800;-57
2021/05/15 06:52:38;;;;;;;9.30;9.00;;;25.40;61.20;;;;;;3565152;40;20496;-57
2021/05/15 06:55:07;;;;;;;9.00;8.70;;;25.50;61.40;;;;;;3564737;40;20493;-58
2021/05/15 06:57:34;;;;;;;8.90;8.60;;;25.50;61.50;;;;;;3562445;40;20484;-57
2021/05/15 07:00:01;;;;;;;9.67;9.20;;;25.40;61.50;;;;;;3556633;40;20522;-58
2021/05/15 07:02:29;;;;;;;8.80;8.50;;;25.40;61.60;;;;;;3564396;40;20497;-57
2021/05/15 07:04:58;;;;;;;9.40;9.10;;;25.40;61.70;;;;;;3565597;40;20508;-57
2021/05/15 07:07:25;;;;;;;9.50;9.10;;;25.40;61.80;;;;;;3566118;40;20713;-57
2021/05/15 07:09:53;;;;;;;9.60;9.20;;;25.40;61.90;;;;;;3563769;40;20587;-57
2021/05/15 07:12:21;;;;;;;9.57;9.17;;;25.40;62.00;;;;;;3566130;40;20486;-58
2021/05/15 07:14:49;;;;;;;9.70;9.40;;;25.40;62.10;;;;;;3564568;40;20509;-57
2021/05/15 07:17:16;;;;;;;9.40;9.07;;;25.40;62.20;;;;;;3568514;40;20215;-58
2021/05/15 07:19:43;;;;;;;11.13;10.43;;;25.40;62.30;;;;;;3561478;40;21129;-58
2021/05/15 07:22:12;;;;;;;10.77;10.00;;;25.40;62.40;;;;;;3556841;40;20738;-57
2021/05/15 07:24:40;;;;;;;16.80;10.60;;;25.40;62.40;;;;;;3563751;40;20933;-58
2021/05/15 07:27:07;;;;;;;11.57;10.30;;;25.40;62.40;;;;;;3561866;40;20503;-57
2021/05/15 07:29:34;;;;;;;10.17;9.57;;;25.40;62.40;;;;;;3565144;40;20578;-56
2021/05/15 07:32:02;;;;;;;11.10;10.50;;;25.40;62.30;;;;;;3564225;40;20562;-56
2021/05/15 07:34:29;;;;;;;9.83;9.40;;;25.40;62.30;;;;;;3564853;40;20529;-56
2021/05/15 07:36:57;;;;;;;10.20;9.70;;;25.40;62.10;;;;;;3565029;40;20474;-58
2021/05/15 07:39:25;;;;;;;11.73;10.40;;;25.30;62.10;;;;;;3564240;40;20520;-57
2021/05/15 07:41:51;;;;;;;11.13;10.33;;;25.30;62.30;;;;;;3565898;40;20497;-55
2021/05/15 07:44:27;;;;;;;10.30;9.90;;;25.20;62.50;;;;;;3563231;40;20477;-55
2021/05/15 07:46:54;;;;;;;11.50;10.70;;;25.20;62.60;;;;;;3562565;40;20691;-56
2021/05/15 07:49:29;;;;;;;11.32;10.30;;;25.20;62.70;;;;;;3561858;40;20328;-57
2021/05/15 07:51:57;;;;;;;10.77;10.00;;;25.20;62.80;;;;;;3563506;40;20623;-57
2021/05/15 07:54:25;;;;;;;10.00;9.40;;;25.30;62.80;;;;;;3564373;40;20893;-57
2021/05/15 07:56:54;;;;;;;10.97;10.23;;;25.30;62.80;;;;;;3564654;40;20482;-56
2021/05/15 07:59:21;;;;;;;10.13;9.53;;;25.20;63.60;;;;;;3562819;40;20486;-54
2021/05/15 08:01:49;;;;;;;10.50;9.77;;;25.30;63.00;;;;;;3563773;40;21007;-57
2021/05/15 08:04:16;;;;;;;10.83;9.80;;;25.30;62.90;;;;;;3563070;40;20257;-57
2021/05/15 08:06:43;;;;;;;10.70;10.00;;;25.30;62.90;;;;;;3563876;40;20726;-57
2021/05/15 08:09:12;;;;;;;9.47;9.07;;;25.30;62.80;;;;;;3563853;40;20736;-56
2021/05/15 08:11:41;;;;;;;9.90;9.50;;;25.30;62.80;;;;;;3555648;40;20500;-56
2021/05/15 08:14:11;;;;;;;9.90;9.37;;;25.30;62.80;;;;;;3564089;40;20489;-56
2021/05/15 08:16:39;;;;;;;10.20;9.30;;;25.30;62.90;;;;;;3564362;40;20477;-58
2021/05/15 08:19:07;;;;;;;9.57;9.17;;;25.30;62.90;;;;;;3562694;40;20494;-58
2021/05/15 08:21:34;;;;;;;9.85;9.32;;;25.30;63.00;;;;;;3563433;40;20478;-56
2021/05/15 08:24:04;;;;;;;9.40;9.05;;;25.30;63.10;;;;;;3563232;40;20232;-56
2021/05/15 08:26:31;;;;;;;9.93;9.23;;;25.30;63.10;;;;;;3562605;40;20251;-56
2021/05/15 08:29:00;;;;;;;10.60;9.80;;;25.30;63.00;;;;;;3562076;40;20594;-57
2021/05/15 08:31:27;;;;;;;10.10;9.70;;;25.30;62.80;;;;;;3562061;40;20486;-56
2021/05/15 08:33:55;;;;;;;9.73;9.23;;;25.30;62.80;;;;;;3563196;40;20493;-57
2021/05/15 08:36:22;;;;;;;10.43;9.60;;;25.30;62.80;;;;;;3562806;40;20485;-58
2021/05/15 08:38:53;;;;;;;11.50;10.53;;;25.30;62.80;;;;;;3561337;40;20506;-58
2021/05/15 08:41:20;;;;;;;9.75;9.30;;;25.30;62.80;;;;;;3562575;40;20538;-56
2021/05/15 08:43:49;;;;;;;9.50;8.90;;;25.20;62.80;;;;;;3562142;40;20258;-57
2021/05/15 08:46:17;;;;;;;9.60;9.10;;;25.20;63.10;;;;;;3562482;40;20893;-56
2021/05/15 08:48:44;;;;;;;9.47;9.17;;;25.20;62.80;;;;;;3561446;40;20802;-56
2021/05/15 08:51:12;;;;;;;8.90;8.60;;;25.20;62.90;;;;;;3562341;40;20539;-55
2021/05/15 08:53:40;;;;;;;9.63;9.13;;;25.20;62.80;;;;;;3553304;40;20502;-57
2021/05/15 08:56:09;;;;;;;9.48;9.07;;;25.20;62.80;;;;;;3562103;40;20228;-56
2021/05/15 08:58:38;;;;;;;9.10;8.80;;;25.20;62.80;;;;;;3562102;40;20236;-53
2021/05/15 09:01:06;;;;;;;10.13;9.43;;;25.20;62.80;;;;;;3561217;40;20485;-54
2021/05/15 09:03:34;;;;;;;11.10;10.20;;;25.20;62.80;;;;;;3561496;40;20955;-57
2021/05/15 09:06:01;;;;;;;10.57;10.13;;;25.20;62.90;;;;;;3562602;40;20554;-57
2021/05/15 09:08:28;;;;;;;10.20;9.80;;;25.20;62.90;;;;;;3562929;40;20483;-56
2021/05/15 09:10:56;;;;;;;11.27;10.67;;;25.20;63.10;;;;;;3554444;40;20489;-56
2021/05/15 09:13:26;;;;;;;11.40;10.70;;;25.20;63.20;;;;;;3563191;40;20606;-55
2021/05/15 09:15:57;;;;;;;10.17;9.77;;;25.20;63.40;;;;;;3562569;40;20567;-55
2021/05/15 09:18:26;;;;;;;10.90;10.40;;;25.20;63.60;;;;;;3562787;40;20482;-57
2021/05/15 09:20:57;;;;;;;11.03;10.53;;;25.20;63.70;;;;;;3562914;40;20504;-57
2021/05/15 09:23:26;;;;;;;11.33;10.57;;;25.20;63.90;;;;;;3562803;40;20578;-54
2021/05/15 09:25:58;;;;;;;10.30;9.80;;;25.20;64.00;;;;;;3562904;40;20543;-56
2021/05/15 09:28:33;;;;;;;10.93;10.37;;;25.20;64.20;;;;;;3563320;40;20768;-56
2021/05/15 09:31:20;;;;;;;10.52;10.13;;;25.10;64.10;;;;;;3562116;40;20471;-56
2021/05/15 09:33:50;;;;;;;11.17;10.27;;;25.20;64.20;;;;;;3560455;40;20218;-56
2021/05/15 09:36:21;;;;;;;11.27;10.20;;;25.20;64.10;;;;;;3561590;40;20492;-58
2021/05/15 09:39:10;;;;;;;10.10;9.50;;;25.20;64.10;;;;;;3561956;40;20497;-57
2021/05/15 09:41:41;;;;;;;9.70;9.10;;;25.20;64.10;;;;;;3559001;40;20563;-56
2021/05/15 09:44:11;;;;;;;10.67;10.10;;;25.20;64.10;;;;;;3562171;40;20486;-57
2021/05/15 09:46:40;;;;;;;10.60;10.10;;;25.20;64.10;;;;;;3562269;40;20517;-56
2021/05/15 09:49:07;;;;;;;11.13;10.30;;;25.20;64.20;;;;;;3559743;40;22635;-56
2021/05/15 09:51:38;;;;;;;10.83;10.07;;;25.20;64.20;;;;;;3552930;40;21248;-56
2021/05/15 09:54:17;;;;;;;11.37;10.43;;;25.20;64.20;;;;;;3551326;40;20482;-55
2021/05/15 09:56:56;;;;;;;10.30;9.80;;;25.10;64.10;;;;;;3551603;40;20483;-57
2021/05/15 09:59:31;;;;;;;10.60;9.90;;;25.10;64.20;;;;;;3551564;40;20509;-55
2021/05/15 10:02:00;;;;;;;11.30;10.63;;;25.10;64.20;;;;;;3552288;40;21123;-56
2021/05/15 10:04:28;;;;;;;9.23;8.83;;;25.10;64.20;;;;;;3551708;40;20287;-54
2021/05/15 10:06:56;;;;;;;10.67;9.93;;;25.10;64.20;;;;;;3552288;40;20908;-55
2021/05/15 10:09:31;;;;;;;9.90;9.40;;;25.10;64.20;;;;;;3551344;40;20537;-56
2021/05/15 10:11:59;;;;;;;10.50;9.90;;;25.10;64.10;;;;;;3551337;40;21099;-57
2021/05/15 10:14:27;;;;;;;10.40;9.83;;;25.10;64.00;;;;;;3542407;40;20504;-55
2021/05/15 10:16:55;;;;;;;11.40;10.40;;;25.10;64.10;;;;;;3551573;40;20567;-57
2021/05/15 10:19:22;;;;;;;10.00;9.60;;;25.10;64.10;;;;;;3551328;40;20491;-54
2021/05/15 10:21:51;;;;;;;10.57;10.07;;;25.00;64.10;;;;;;3551841;40;20477;-56
2021/05/15 10:24:24;;;;;;;10.60;9.90;;;25.00;64.10;;;;;;3551589;40;20486;-57
2021/05/15 10:26:57;;;;;;;10.40;9.90;;;25.00;64.20;;;;;;3550908;40;20971;-54
2021/05/15 10:29:38;;;;;;;11.10;10.43;;;25.00;64.10;;;;;;3552751;40;20515;-55
2021/05/15 10:32:09;;;;;;;11.30;10.77;;;25.00;63.70;;;;;;3552564;40;21214;-56
2021/05/15 10:34:38;;;;;;;11.67;10.80;;;25.00;63.80;;;;;;3552519;40;20490;-56
2021/05/15 10:37:15;;;;;;;11.60;10.70;;;25.00;63.80;;;;;;3552186;40;20545;-56
2021/05/15 10:39:44;;;;;;;10.90;10.30;;;25.00;63.80;;;;;;3552618;40;20490;-56
2021/05/15 10:42:12;;;;;;;11.33;10.83;;;25.00;63.80;;;;;;3551781;40;20514;-56
2021/05/15 10:44:41;;;;;;;12.07;11.10;;;24.90;63.60;;;;;;3551890;40;20539;-56
2021/05/15 10:47:09;;;;;;;19.67;17.77;;;24.90;63.70;;;;;;3551724;40;20506;-57
2021/05/15 10:49:37;;;;;;;21.07;19.27;;;24.90;63.80;;;;;;3552457;40;20490;-57
2021/05/15 10:52:12;;;;;;;20.90;19.00;;;24.90;63.90;;;;;;3551772;40;20503;-56
2021/05/15 10:54:41;;;;;;;17.83;16.43;;;24.90;63.80;;;;;;3554511;40;20486;-54
2021/05/15 10:57:12;;;;;;;16.25;14.93;;;25.00;63.90;;;;;;3555146;40;20515;-57
2021/05/15 10:59:41;;;;;;;16.00;14.70;;;25.00;64.00;;;;;;3554244;40;20813;-57
2021/05/15 11:02:10;;;;;;;16.30;14.82;;;25.00;64.00;;;;;;3554576;40;20484;-57
2021/05/15 11:04:50;;;;;;;16.43;15.20;;;25.00;64.10;;;;;;3552194;40;20825;-55
2021/05/15 11:07:22;;;;;;;15.37;14.27;;;25.00;64.20;;;;;;3551589;40;20538;-56
2021/05/15 11:09:54;;;;;;;16.00;14.80;;;24.90;64.10;;;;;;3552114;40;20576;-56
2021/05/15 11:12:22;;;;;;;15.60;14.50;;;24.90;64.20;;;;;;3550737;40;20490;-56
2021/05/15 11:14:52;;;;;;;16.50;15.10;;;24.90;64.20;;;;;;3556478;40;20252;-56
2021/05/15 11:17:27;;;;;;;21.00;14.83;;;24.90;64.30;;;;;;3562982;40;20503;-55
2021/05/15 11:19:56;;;;;;;15.30;14.23;;;24.90;64.30;;;;;;3563071;40;20498;-56
2021/05/15 11:22:40;;;;;;;15.00;14.00;;;24.90;64.30;;;;;;3562726;40;20682;-57
2021/05/15 11:25:27;;;;;;;16.20;14.90;;;24.90;64.40;;;;;;3562180;40;20603;-55
2021/05/15 11:27:57;;;;;;;15.20;14.07;;;24.90;64.40;;;;;;3561444;40;20501;-56
2021/05/15 11:30:26;;;;;;;15.00;13.70;;;24.90;64.50;;;;;;3563348;40;20349;-56
2021/05/15 11:33:03;;;;;;;15.50;14.27;;;24.90;64.40;;;;;;3553930;40;20486;-54
2021/05/15 11:35:33;;;;;;;15.63;14.70;;;24.90;64.50;;;;;;3563050;40;21188;-57
2021/05/15 11:38:06;;;;;;;11.97;11.10;;;24.90;64.40;;;;;;3562602;40;20900;-55
2021/05/15 11:40:36;;;;;;;10.10;9.70;;;24.70;55.00;;;;;;3563456;40;20818;-56
2021/05/15 11:43:05;;;;;;;9.90;9.50;;;24.30;52.70;;;;;;3562738;40;20493;-56
2021/05/15 11:45:34;;;;;;;10.50;9.90;;;24.00;53.50;;;;;;3563098;40;20478;-54
2021/05/15 11:48:10;;;;;;;9.00;8.80;;;23.90;53.90;;;;;;3563277;40;20729;-56
2021/05/15 11:50:39;;;;;;;9.77;9.37;;;23.70;52.70;;;;;;3553631;40;20498;-54
2021/05/15 11:53:07;;;;;;;10.70;10.30;;;23.60;53.20;;;;;;3562534;40;20496;-58
2021/05/15 11:55:34;;;;;;;10.77;10.23;;;23.60;54.60;;;;;;3559238;40;20517;-58
2021/05/15 11:58:04;;;;;;;10.97;10.27;;;23.80;55.80;;;;;;3561125;40;20525;-54
2021/05/15 12:00:33;;;;;;;12.37;11.33;;;23.90;56.90;;;;;;3561128;40;20566;-55
2021/05/15 12:03:04;;;;;;;13.60;12.40;;;24.10;58.40;;;;;;3561179;40;20485;-55
2021/05/15 12:05:32;;;;;;;12.73;11.80;;;24.10;59.00;;;;;;3562243;40;20482;-54
2021/05/15 12:08:01;;;;;;;12.57;11.77;;;24.20;59.60;;;;;;3562075;40;21196;-56
2021/05/15 12:10:29;;;;;;;13.67;12.40;;;24.30;60.10;;;;;;3561999;40;20495;-57
2021/05/15 12:12:57;;;;;;;12.83;12.13;;;24.30;60.80;;;;;;3562487;40;20481;-58
2021/05/15 12:15:25;;;;;;;13.10;12.27;;;24.40;61.20;;;;;;3551972;40;20504;-58
2021/05/15 12:17:54;;;;;;;12.87;11.63;;;24.40;61.70;;;;;;3541707;40;20258;-56
2021/05/15 12:20:32;;;;;;;12.90;12.10;;;24.40;62.10;;;;;;3540881;40;20498;-55
2021/05/15 12:23:12;;;;;;;11.83;11.23;;;24.40;62.40;;;;;;3542252;40;20920;-57
2021/05/15 12:25:42;;;;;;;12.10;11.40;;;24.40;62.50;;;;;;3541076;40;21194;-57
2021/05/15 12:28:21;;;;;;;12.00;11.23;;;24.50;62.80;;;;;;3541943;40;20487;-56
2021/05/15 12:30:48;;;;;;;11.60;10.93;;;24.40;62.90;;;;;;3539542;40;20569;-57
2021/05/15 12:33:32;;;;;;;10.40;9.90;;;24.50;63.20;;;;;;3542143;40;20508;-56
2021/05/15 12:36:02;;;;;;;9.97;9.33;;;24.50;63.30;;;;;;3541669;40;20472;-56
2021/05/15 12:38:29;;;;;;;9.90;9.40;;;24.50;63.50;;;;;;3540831;40;20508;-54
2021/05/15 12:41:09;;;;;;;10.20;9.50;;;24.50;63.70;;;;;;3541313;40;20491;-56
2021/05/15 12:43:38;;;;;;;10.63;10.10;;;24.50;63.70;;;;;;3559721;40;20481;-56
2021/05/15 12:46:11;;;;;;;10.20;9.50;;;24.50;63.80;;;;;;3560082;40;20478;-57
2021/05/15 12:48:52;;;;;;;10.23;9.60;;;24.50;63.90;;;;;;3561274;40;20856;-56